Denver, CO (80208)

4:58 AM MDT on September 15, 2014 (GMT -0600)
DU - Downing and Evans | Change Station
CLOSE
Current Station
Personal Weather Station
Location: Denver, CO
Elevation: 5354 ft
Nearby Weather Stations

Elev 5354 ft 39.68 °N, 104.97 °W | Updated 12 seconds ago

Partly Cloudy
Partly Cloudy
55.6 °F
Feels Like 55.6 °F
N
0.0
Wind Variable Wind from NNW
Gusts 0.0 mph

Today
High -- | Low -- °F
--% Chance of Precip.
Yesterday
High -- | Low -- °F
Precip. -- in
6:41 AM 7:08 PM
Waning Gibbous, 56% visible
Pressure 30.32 in
Visibility 10.0 miles
Clouds Mostly Cloudy 2500 ft
Dew Point 41 °F
Humidity 57%
Rainfall 0.00 in
Snow Depth 0 in , 0 in , 0 in
UV 0 out of 12
Pollen 7.60 out of 12
Air Quality Not available.
Flu Activity Not available.
SPECI KAPA 151051Z 32006KT 10SM BKN025 12/09 A3032 RMK AO2

More Conditions Fewer Conditions

Pressure 30.32 in
Visibility 10.0 miles
Clouds Mostly Cloudy 2500 ft
Dew Point 41 °F
Humidity 57%
Rainfall 0.00 in
Snow Depth 0 in , 0 in , 0 in
UV 0 out of 12
Pollen 7.60 out of 12
Air Quality Not available.
Flu Activity Not available.
SPECI KAPA 151051Z 32006KT 10SM BKN025 12/09 A3032 RMK AO2

More Conditions Fewer Conditions

10-Day Weather Forecast

Almanac

Astronomy

Sep. 15, 2014 Rise Set
Actual Time 6:41 AM MDT 7:08 PM MDT
Civil Twilight 6:13 AM MDT 7:35 PM MDT
Nautical Twilight 5:42 AM MDT 8:07 PM MDT
Astronomical Twilight 5:09 AM MDT 8:39 PM MDT
Moon 11:54 PM MDT 1:42 PM MDT
Length of Visible Light 13h 21m
Length of Day
12h 27m
Tomorrow will be 2m 34s shorter.
Waning Gibbous, 56% of the Moon is Illuminated
Today
Waning Gibbous
Sep 15
Last Quarter
Sep 24
New
Oct 1
First Quarter
Oct 8
Full

Today's Extremes

State Highs State Lows

Community

WunderPhotos

Upload Photos

1,753,428 photos uploaded!

Nearby

Air Quality

  Air Quality AQ Index Pollutant
Yesterday Good
OZONE
Yesterday Good
PM10
Monday Good
OZONE
Monday Good
PM2.5

Snow Depth

Station Depth Elevation
Mancos 1 in 10000 ft
Buffalo Park 0 in 9240 ft
Glen Cove 0 in 11460 ft
Hoosier Pass 0 in 11400 ft
Lake Irene 0 in 10700 ft

Earthquake Activity

City Distance Mag. Time & Date
No recent earthquake activity has been reported nearby.
Minimum magnitude displayed is 2.5.

Coastal Water Temperatures

Place Temperature
No Stations Reporting

Nearby Weather Stations